sensor_id;sensor_type;location;lat;lon;timestamp;temperature;humidity
15765;DHT22;7983;50.744;7.086;2022-10-01T00:02:05;13.60;99.90
15765;DHT22;7983;50.744;7.086;2022-10-01T00:04:31;13.60;99.90
15765;DHT22;7983;50.744;7.086;2022-10-01T00:06:57;13.60;99.90
15765;DHT22;7983;50.744;7.086;2022-10-01T00:09:25;13.60;99.90
15765;DHT22;7983;50.744;7.086;2022-10-01T00:11:53;13.60;99.90
15765;DHT22;7983;50.744;7.086;2022-10-01T00:14:19;13.60;99.90
15765;DHT22;7983;50.744;7.086;2022-10-01T00:16:47;13.60;99.90
15765;DHT22;7983;50.744;7.086;2022-10-01T00:19:17;13.60;99.90
15765;DHT22;7983;50.744;7.086;2022-10-01T00:21:43;13.70;99.90
15765;DHT22;7983;50.744;7.086;2022-10-01T00:24:10;13.70;99.90
15765;DHT22;7983;50.744;7.086;2022-10-01T00:26:40;13.70;99.90
15765;DHT22;7983;50.744;7.086;2022-10-01T00:29:09;13.80;99.90
15765;DHT22;7983;50.744;7.086;2022-10-01T00:31:35;13.90;99.90
15765;DHT22;7983;50.744;7.086;2022-10-01T00:34:02;13.90;99.90
15765;DHT22;7983;50.744;7.086;2022-10-01T00:36:29;14.00;99.90
15765;DHT22;7983;50.744;7.086;2022-10-01T00:38:59;14.10;99.90
15765;DHT22;7983;50.744;7.086;2022-10-01T00:41:30;14.20;99.90
15765;DHT22;7983;50.744;7.086;2022-10-01T00:44:01;14.30;99.90
15765;DHT22;7983;50.744;7.086;2022-10-01T00:46:38;14.40;99.90
15765;DHT22;7983;50.744;7.086;2022-10-01T00:49:11;14.50;99.90
15765;DHT22;7983;50.744;7.086;2022-10-01T00:51:47;14.60;99.90
15765;DHT22;7983;50.744;7.086;2022-10-01T00:54:20;14.60;99.90
15765;DHT22;7983;50.744;7.086;2022-10-01T00:56:51;14.60;99.90
15765;DHT22;7983;50.744;7.086;2022-10-01T00:59:17;14.60;99.90
15765;DHT22;7983;50.744;7.086;2022-10-01T01:01:45;14.60;99.90
15765;DHT22;7983;50.744;7.086;2022-10-01T01:04:11;14.60;99.90
15765;DHT22;7983;50.744;7.086;2022-10-01T01:07:03;14.60;99.90
15765;DHT22;7983;50.744;7.086;2022-10-01T01:09:33;14.50;99.90
15765;DHT22;7983;50.744;7.086;2022-10-01T01:15:29;14.40;99.90
15765;DHT22;7983;50.744;7.086;2022-10-01T01:18:01;14.20;99.90
15765;DHT22;7983;50.744;7.086;2022-10-01T01:20:55;14.10;99.90
15765;DHT22;7983;50.744;7.086;2022-10-01T01:26:25;13.90;99.90
15765;DHT22;7983;50.744;7.086;2022-10-01T01:28:58;13.70;99.90
15765;DHT22;7983;50.744;7.086;2022-10-01T01:31:32;13.60;99.90
15765;DHT22;7983;50.744;7.086;2022-10-01T01:34:04;13.60;99.90
15765;DHT22;7983;50.744;7.086;2022-10-01T01:36:36;13.50;99.90
15765;DHT22;7983;50.744;7.086;2022-10-01T01:39:07;13.40;99.90
15765;DHT22;7983;50.744;7.086;2022-10-01T01:41:37;13.30;99.90
15765;DHT22;7983;50.744;7.086;2022-10-01T01:44:07;13.30;99.90
15765;DHT22;7983;50.744;7.086;2022-10-01T01:46:37;13.20;99.90
15765;DHT22;7983;50.744;7.086;2022-10-01T01:49:07;13.10;99.90
15765;DHT22;7983;50.744;7.086;2022-10-01T01:51:58;13.00;99.90
15765;DHT22;7983;50.744;7.086;2022-10-01T01:54:25;12.90;99.90
15765;DHT22;7983;50.744;7.086;2022-10-01T01:56:57;12.90;99.90
15765;DHT22;7983;50.744;7.086;2022-10-01T01:59:25;12.80;99.90
15765;DHT22;7983;50.744;7.086;2022-10-01T02:01:52;12.70;99.90
15765;DHT22;7983;50.744;7.086;2022-10-01T02:09:26;12.60;99.90
15765;DHT22;7983;50.744;7.086;2022-10-01T02:12:32;12.60;99.90
15765;DHT22;7983;50.744;7.086;2022-10-01T02:15:24;12.60;99.90
15765;DHT22;7983;50.744;7.086;2022-10-01T02:20:44;12.50;99.90
15765;DHT22;7983;50.744;7.086;2022-10-01T02:23:26;12.50;99.90
15765;DHT22;7983;50.744;7.086;2022-10-01T02:25:58;12.40;99.90
15765;DHT22;7983;50.744;7.086;2022-10-01T02:28:30;12.40;99.90
15765;DHT22;7983;50.744;7.086;2022-10-01T02:30:59;12.40;99.90
15765;DHT22;7983;50.744;7.086;2022-10-01T02:33:31;12.40;99.90
15765;DHT22;7983;50.744;7.086;2022-10-01T02:35:59;12.40;99.90
15765;DHT22;7983;50.744;7.086;2022-10-01T02:38:27;12.40;99.90
15765;DHT22;7983;50.744;7.086;2022-10-01T02:40:58;12.40;99.90
15765;DHT22;7983;50.744;7.086;2022-10-01T02:43:33;12.40;99.90
15765;DHT22;7983;50.744;7.086;2022-10-01T02:46:06;12.40;99.90
15765;DHT22;7983;50.744;7.086;2022-10-01T02:48:37;12.40;99.90
15765;DHT22;7983;50.744;7.086;2022-10-01T02:51:17;12.40;99.90
15765;DHT22;7983;50.744;7.086;2022-10-01T02:53:54;12.40;99.90
15765;DHT22;7983;50.744;7.086;2022-10-01T02:56:21;12.40;99.90
15765;DHT22;7983;50.744;7.086;2022-10-01T02:59:11;12.40;99.90
15765;DHT22;7983;50.744;7.086;2022-10-01T03:01:39;12.40;99.90
15765;DHT22;7983;50.744;7.086;2022-10-01T03:04:05;12.40;99.90
15765;DHT22;7983;50.744;7.086;2022-10-01T03:06:30;12.40;99.90
15765;DHT22;7983;50.744;7.086;2022-10-01T03:08:56;12.40;99.90
15765;DHT22;7983;50.744;7.086;2022-10-01T03:11:22;12.50;99.90
15765;DHT22;7983;50.744;7.086;2022-10-01T03:13:47;12.40;99.90
15765;DHT22;7983;50.744;7.086;2022-10-01T03:16:13;12.40;99.90
15765;DHT22;7983;50.744;7.086;2022-10-01T03:18:38;12.40;99.90
15765;DHT22;7983;50.744;7.086;2022-10-01T03:21:04;12.40;99.90
15765;DHT22;7983;50.744;7.086;2022-10-01T03:23:30;12.40;99.90
15765;DHT22;7983;50.744;7.086;2022-10-01T03:25:55;12.40;99.90
15765;DHT22;7983;50.744;7.086;2022-10-01T03:28:23;12.50;99.90
15765;DHT22;7983;50.744;7.086;2022-10-01T03:31:02;12.50;99.90
15765;DHT22;7983;50.744;7.086;2022-10-01T03:33:27;12.50;99.90
15765;DHT22;7983;50.744;7.086;2022-10-01T03:35:55;12.50;99.90
15765;DHT22;7983;50.744;7.086;2022-10-01T03:38:21;12.50;99.90
15765;DHT22;7983;50.744;7.086;2022-10-01T03:40:53;12.50;99.90
15765;DHT22;7983;50.744;7.086;2022-10-01T03:43:21;12.50;99.90
15765;DHT22;7983;50.744;7.086;2022-10-01T03:45:51;12.50;99.90
15765;DHT22;7983;50.744;7.086;2022-10-01T03:48:16;12.40;99.90
15765;DHT22;7983;50.744;7.086;2022-10-01T03:50:42;12.60;99.90
15765;DHT22;7983;50.744;7.086;2022-10-01T03:53:18;12.60;99.90
15765;DHT22;7983;50.744;7.086;2022-10-01T03:55:46;12.70;99.90
15765;DHT22;7983;50.744;7.086;2022-10-01T03:58:12;12.60;99.90
15765;DHT22;7983;50.744;7.086;2022-10-01T04:00:39;12.60;99.90
15765;DHT22;7983;50.744;7.086;2022-10-01T04:03:06;12.50;99.90
15765;DHT22;7983;50.744;7.086;2022-10-01T04:05:34;12.60;99.90
15765;DHT22;7983;50.744;7.086;2022-10-01T04:07:59;12.60;99.90
15765;DHT22;7983;50.744;7.086;2022-10-01T04:10:28;12.50;99.90
15765;DHT22;7983;50.744;7.086;2022-10-01T04:12:54;12.50;99.90
15765;DHT22;7983;50.744;7.086;2022-10-01T04:15:23;12.50;99.90
15765;DHT22;7983;50.744;7.086;2022-10-01T04:17:49;12.50;99.90
15765;DHT22;7983;50.744;7.086;2022-10-01T04:20:15;12.60;99.90
15765;DHT22;7983;50.744;7.086;2022-10-01T04:22:41;12.50;99.90
15765;DHT22;7983;50.744;7.086;2022-10-01T04:25:09;12.50;99.90
15765;DHT22;7983;50.744;7.086;2022-10-01T04:27:41;12.50;99.90
15765;DHT22;7983;50.744;7.086;2022-10-01T04:30:08;12.50;99.90
15765;DHT22;7983;50.744;7.086;2022-10-01T04:32:36;12.50;99.90
15765;DHT22;7983;50.744;7.086;2022-10-01T04:35:01;12.50;99.90
15765;DHT22;7983;50.744;7.086;2022-10-01T04:37:31;12.50;99.90
15765;DHT22;7983;50.744;7.086;2022-10-01T04:39:57;12.50;99.90
15765;DHT22;7983;50.744;7.086;2022-10-01T04:42:27;12.40;99.90
15765;DHT22;7983;50.744;7.086;2022-10-01T04:44:55;12.40;99.90
15765;DHT22;7983;50.744;7.086;2022-10-01T04:47:22;12.40;99.90
15765;DHT22;7983;50.744;7.086;2022-10-01T04:49:50;12.40;99.90
15765;DHT22;7983;50.744;7.086;2022-10-01T04:52:18;12.40;99.90
15765;DHT22;7983;50.744;7.086;2022-10-01T04:54:45;12.40;99.90
15765;DHT22;7983;50.744;7.086;2022-10-01T04:57:18;12.40;99.90
15765;DHT22;7983;50.744;7.086;2022-10-01T04:59:47;12.40;99.90
15765;DHT22;7983;50.744;7.086;2022-10-01T05:02:13;12.40;99.90
15765;DHT22;7983;50.744;7.086;2022-10-01T05:04:39;12.30;99.90
15765;DHT22;7983;50.744;7.086;2022-10-01T05:07:07;12.40;99.90
15765;DHT22;7983;50.744;7.086;2022-10-01T05:09:34;12.40;99.90
15765;DHT22;7983;50.744;7.086;2022-10-01T05:12:02;12.40;99.90
15765;DHT22;7983;50.744;7.086;2022-10-01T05:14:34;12.40;99.90
15765;DHT22;7983;50.744;7.086;2022-10-01T05:17:00;12.40;99.90
15765;DHT22;7983;50.744;7.086;2022-10-01T05:19:26;12.40;99.90
15765;DHT22;7983;50.744;7.086;2022-10-01T05:21:55;12.40;99.90
15765;DHT22;7983;50.744;7.086;2022-10-01T05:24:23;12.50;99.90
15765;DHT22;7983;50.744;7.086;2022-10-01T05:26:51;12.50;99.90
15765;DHT22;7983;50.744;7.086;2022-10-01T05:29:19;12.50;99.90
15765;DHT22;7983;50.744;7.086;2022-10-01T05:31:44;12.60;99.90
15765;DHT22;7983;50.744;7.086;2022-10-01T05:34:11;12.60;99.90
15765;DHT22;7983;50.744;7.086;2022-10-01T05:36:42;12.60;99.90
15765;DHT22;7983;50.744;7.086;2022-10-01T05:39:10;12.70;99.90
15765;DHT22;7983;50.744;7.086;2022-10-01T05:41:40;12.70;99.90
15765;DHT22;7983;50.744;7.086;2022-10-01T05:44:06;12.70;99.90
15765;DHT22;7983;50.744;7.086;2022-10-01T05:46:34;12.80;99.90
15765;DHT22;7983;50.744;7.086;2022-10-01T05:49:00;12.80;99.90
15765;DHT22;7983;50.744;7.086;2022-10-01T05:51:28;12.80;99.90
15765;DHT22;7983;50.744;7.086;2022-10-01T05:53:55;12.80;99.90
15765;DHT22;7983;50.744;7.086;2022-10-01T05:56:24;12.90;99.90
15765;DHT22;7983;50.744;7.086;2022-10-01T05:58:52;12.90;99.90
15765;DHT22;7983;50.744;7.086;2022-10-01T06:01:18;12.90;99.90
15765;DHT22;7983;50.744;7.086;2022-10-01T06:03:50;13.00;99.90
15765;DHT22;7983;50.744;7.086;2022-10-01T06:06:22;12.90;99.90
15765;DHT22;7983;50.744;7.086;2022-10-01T06:08:50;13.00;99.90
15765;DHT22;7983;50.744;7.086;2022-10-01T06:11:16;13.00;99.90
15765;DHT22;7983;50.744;7.086;2022-10-01T06:13:43;13.10;99.90
15765;DHT22;7983;50.744;7.086;2022-10-01T06:16:15;13.10;99.90
15765;DHT22;7983;50.744;7.086;2022-10-01T06:18:41;13.10;99.90
15765;DHT22;7983;50.744;7.086;2022-10-01T06:21:09;13.10;99.90
15765;DHT22;7983;50.744;7.086;2022-10-01T06:23:37;13.10;99.90
15765;DHT22;7983;50.744;7.086;2022-10-01T06:26:05;13.20;99.90
15765;DHT22;7983;50.744;7.086;2022-10-01T06:28:31;13.20;99.90
15765;DHT22;7983;50.744;7.086;2022-10-01T06:31:00;13.20;99.90
15765;DHT22;7983;50.744;7.086;2022-10-01T06:33:26;13.30;99.90
15765;DHT22;7983;50.744;7.086;2022-10-01T06:35:54;13.30;99.90
15765;DHT22;7983;50.744;7.086;2022-10-01T06:38:21;13.30;99.90
15765;DHT22;7983;50.744;7.086;2022-10-01T06:40:52;13.40;99.90
15765;DHT22;7983;50.744;7.086;2022-10-01T06:43:18;13.40;99.90
15765;DHT22;7983;50.744;7.086;2022-10-01T06:45:44;13.40;99.90
15765;DHT22;7983;50.744;7.086;2022-10-01T06:48:13;13.50;99.90
15765;DHT22;7983;50.744;7.086;2022-10-01T06:50:40;13.50;99.90
15765;DHT22;7983;50.744;7.086;2022-10-01T06:53:08;13.60;99.90
15765;DHT22;7983;50.744;7.086;2022-10-01T06:55:38;13.60;99.90
15765;DHT22;7983;50.744;7.086;2022-10-01T06:58:12;13.60;99.90
15765;DHT22;7983;50.744;7.086;2022-10-01T07:00:41;13.50;99.90
15765;DHT22;7983;50.744;7.086;2022-10-01T07:03:13;13.50;99.90
15765;DHT22;7983;50.744;7.086;2022-10-01T07:05:41;13.40;99.90
15765;DHT22;7983;50.744;7.086;2022-10-01T07:08:07;13.30;99.90
15765;DHT22;7983;50.744;7.086;2022-10-01T07:10:33;13.30;99.90
15765;DHT22;7983;50.744;7.086;2022-10-01T07:13:16;13.20;99.90
15765;DHT22;7983;50.744;7.086;2022-10-01T07:15:45;13.30;99.90
15765;DHT22;7983;50.744;7.086;2022-10-01T07:18:14;13.20;99.90
15765;DHT22;7983;50.744;7.086;2022-10-01T07:20:40;13.20;99.90
15765;DHT22;7983;50.744;7.086;2022-10-01T07:23:13;13.20;99.90
15765;DHT22;7983;50.744;7.086;2022-10-01T07:25:40;13.30;99.90
15765;DHT22;7983;50.744;7.086;2022-10-01T07:28:09;13.30;99.90
15765;DHT22;7983;50.744;7.086;2022-10-01T07:30:41;13.30;99.90
15765;DHT22;7983;50.744;7.086;2022-10-01T07:33:09;13.40;99.90
15765;DHT22;7983;50.744;7.086;2022-10-01T07:35:36;13.40;99.90
15765;DHT22;7983;50.744;7.086;2022-10-01T07:38:03;13.60;99.90
15765;DHT22;7983;50.744;7.086;2022-10-01T07:40:34;13.60;99.90
15765;DHT22;7983;50.744;7.086;2022-10-01T07:43:02;13.70;99.90
15765;DHT22;7983;50.744;7.086;2022-10-01T07:45:28;13.90;99.90
15765;DHT22;7983;50.744;7.086;2022-10-01T07:47:59;14.00;99.90
15765;DHT22;7983;50.744;7.086;2022-10-01T07:50:26;14.20;99.90
15765;DHT22;7983;50.744;7.086;2022-10-01T07:52:56;14.20;99.90
15765;DHT22;7983;50.744;7.086;2022-10-01T07:55:25;14.30;99.90
15765;DHT22;7983;50.744;7.086;2022-10-01T07:57:57;14.30;99.90
15765;DHT22;7983;50.744;7.086;2022-10-01T08:00:28;14.40;99.90
15765;DHT22;7983;50.744;7.086;2022-10-01T08:02:55;14.50;99.90
15765;DHT22;7983;50.744;7.086;2022-10-01T08:08:05;14.60;99.90
15765;DHT22;7983;50.744;7.086;2022-10-01T08:10:31;14.70;99.90
15765;DHT22;7983;50.744;7.086;2022-10-01T08:13:21;14.80;99.90
15765;DHT22;7983;50.744;7.086;2022-10-01T08:15:50;14.80;99.90
15765;DHT22;7983;50.744;7.086;2022-10-01T08:18:18;14.80;99.90
15765;DHT22;7983;50.744;7.086;2022-10-01T08:20:44;14.90;99.90
15765;DHT22;7983;50.744;7.086;2022-10-01T08:23:14;14.90;99.90
15765;DHT22;7983;50.744;7.086;2022-10-01T08:25:41;15.00;99.90
15765;DHT22;7983;50.744;7.086;2022-10-01T08:28:08;15.00;99.90
15765;DHT22;7983;50.744;7.086;2022-10-01T08:30:37;15.10;99.90
15765;DHT22;7983;50.744;7.086;2022-10-01T08:33:04;15.10;99.90
15765;DHT22;7983;50.744;7.086;2022-10-01T08:35:30;15.10;99.90
15765;DHT22;7983;50.744;7.086;2022-10-01T08:38:05;15.10;99.90
15765;DHT22;7983;50.744;7.086;2022-10-01T08:40:40;15.20;99.90
15765;DHT22;7983;50.744;7.086;2022-10-01T08:43:13;15.20;99.90
15765;DHT22;7983;50.744;7.086;2022-10-01T08:45:49;15.30;99.90
15765;DHT22;7983;50.744;7.086;2022-10-01T08:48:30;15.30;99.90
15765;DHT22;7983;50.744;7.086;2022-10-01T08:57:25;15.40;99.90
15765;DHT22;7983;50.744;7.086;2022-10-01T08:59:59;15.50;99.90
15765;DHT22;7983;50.744;7.086;2022-10-01T09:02:33;15.50;99.90
15765;DHT22;7983;50.744;7.086;2022-10-01T09:21:59;15.80;99.90
15765;DHT22;7983;50.744;7.086;2022-10-01T09:27:16;15.80;99.90
15765;DHT22;7983;50.744;7.086;2022-10-01T09:30:02;15.90;99.90
15765;DHT22;7983;50.744;7.086;2022-10-01T09:32:45;15.90;99.90
15765;DHT22;7983;50.744;7.086;2022-10-01T09:40:50;16.00;99.90
15765;DHT22;7983;50.744;7.086;2022-10-01T09:43:17;16.00;99.90
15765;DHT22;7983;50.744;7.086;2022-10-01T09:45:46;16.10;99.90
15765;DHT22;7983;50.744;7.086;2022-10-01T09:48:40;16.10;99.90
15765;DHT22;7983;50.744;7.086;2022-10-01T09:56:38;16.40;99.90
15765;DHT22;7983;50.744;7.086;2022-10-01T09:59:09;16.60;99.90
15765;DHT22;7983;50.744;7.086;2022-10-01T10:04:03;17.00;99.90
15765;DHT22;7983;50.744;7.086;2022-10-01T10:06:30;17.20;99.90
15765;DHT22;7983;50.744;7.086;2022-10-01T10:08:57;17.70;99.90
15765;DHT22;7983;50.744;7.086;2022-10-01T10:11:29;18.10;99.90
15765;DHT22;7983;50.744;7.086;2022-10-01T10:13:59;18.50;99.90
15765;DHT22;7983;50.744;7.086;2022-10-01T10:16:32;18.90;99.90
15765;DHT22;7983;50.744;7.086;2022-10-01T10:19:13;19.40;99.90
15765;DHT22;7983;50.744;7.086;2022-10-01T10:21:49;19.50;99.90
15765;DHT22;7983;50.744;7.086;2022-10-01T10:24:32;19.60;99.90
15765;DHT22;7983;50.744;7.086;2022-10-01T10:26:58;19.60;99.90
15765;DHT22;7983;50.744;7.086;2022-10-01T10:29:32;19.50;99.90
15765;DHT22;7983;50.744;7.086;2022-10-01T10:32:03;19.50;99.90
15765;DHT22;7983;50.744;7.086;2022-10-01T10:34:35;19.50;99.90
15765;DHT22;7983;50.744;7.086;2022-10-01T10:37:18;19.50;99.90
15765;DHT22;7983;50.744;7.086;2022-10-01T10:39:47;19.60;99.90
15765;DHT22;7983;50.744;7.086;2022-10-01T10:42:15;19.50;99.90
15765;DHT22;7983;50.744;7.086;2022-10-01T10:44:42;19.40;99.90
15765;DHT22;7983;50.744;7.086;2022-10-01T10:47:14;19.30;99.90
15765;DHT22;7983;50.744;7.086;2022-10-01T10:50:00;19.20;99.90
15765;DHT22;7983;50.744;7.086;2022-10-01T10:52:33;19.10;99.90
15765;DHT22;7983;50.744;7.086;2022-10-01T10:55:28;19.00;99.90
15765;DHT22;7983;50.744;7.086;2022-10-01T10:58:35;18.90;99.90
15765;DHT22;7983;50.744;7.086;2022-10-01T11:01:11;18.80;99.90
15765;DHT22;7983;50.744;7.086;2022-10-01T11:03:46;18.70;99.90
15765;DHT22;7983;50.744;7.086;2022-10-01T11:06:13;18.60;99.90
15765;DHT22;7983;50.744;7.086;2022-10-01T11:08:43;18.60;99.90
15765;DHT22;7983;50.744;7.086;2022-10-01T11:25:31;20.10;99.90
15765;DHT22;7983;50.744;7.086;2022-10-01T11:36:48;20.90;99.90
15765;DHT22;7983;50.744;7.086;2022-10-01T11:39:28;21.00;99.90
15765;DHT22;7983;50.744;7.086;2022-10-01T11:42:18;21.00;99.90
15765;DHT22;7983;50.744;7.086;2022-10-01T11:45:03;21.10;99.90
15765;DHT22;7983;50.744;7.086;2022-10-01T11:47:44;21.10;99.90
15765;DHT22;7983;50.744;7.086;2022-10-01T11:55:27;21.00;99.90
15765;DHT22;7983;50.744;7.086;2022-10-01T12:01:30;20.90;99.90
15765;DHT22;7983;50.744;7.086;2022-10-01T12:07:19;20.50;99.90
15765;DHT22;7983;50.744;7.086;2022-10-01T12:13:12;20.40;99.90
15765;DHT22;7983;50.744;7.086;2022-10-01T12:16:10;20.50;99.90
15765;DHT22;7983;50.744;7.086;2022-10-01T12:24:29;21.10;99.90
15765;DHT22;7983;50.744;7.086;2022-10-01T12:30:21;21.50;99.90
15765;DHT22;7983;50.744;7.086;2022-10-01T12:35:41;22.00;99.90
15765;DHT22;7983;50.744;7.086;2022-10-01T12:38:24;22.20;99.90
15765;DHT22;7983;50.744;7.086;2022-10-01T12:41:06;22.30;99.90
15765;DHT22;7983;50.744;7.086;2022-10-01T12:50:17;22.00;99.90
15765;DHT22;7983;50.744;7.086;2022-10-01T12:55:33;21.60;99.90
15765;DHT22;7983;50.744;7.086;2022-10-01T13:07:07;21.60;99.90
15765;DHT22;7983;50.744;7.086;2022-10-01T13:09:45;21.70;99.90
15765;DHT22;7983;50.744;7.086;2022-10-01T13:15:22;21.90;99.90
15765;DHT22;7983;50.744;7.086;2022-10-01T13:26:25;22.70;99.90
15765;DHT22;7983;50.744;7.086;2022-10-01T13:31:39;23.00;99.90
15765;DHT22;7983;50.744;7.086;2022-10-01T13:34:33;23.00;99.90
15765;DHT22;7983;50.744;7.086;2022-10-01T13:37:29;23.10;99.90
15765;DHT22;7983;50.744;7.086;2022-10-01T13:39:55;23.10;99.90
15765;DHT22;7983;50.744;7.086;2022-10-01T13:42:26;23.20;99.90
15765;DHT22;7983;50.744;7.086;2022-10-01T13:45:01;23.30;99.90
15765;DHT22;7983;50.744;7.086;2022-10-01T13:47:32;23.30;99.90
15765;DHT22;7983;50.744;7.086;2022-10-01T13:50:01;23.20;99.90
15765;DHT22;7983;50.744;7.086;2022-10-01T13:52:31;23.20;99.90
15765;DHT22;7983;50.744;7.086;2022-10-01T13:54:58;23.20;99.90
15765;DHT22;7983;50.744;7.086;2022-10-01T13:57:36;23.10;99.90
15765;DHT22;7983;50.744;7.086;2022-10-01T14:02:54;23.00;99.90
15765;DHT22;7983;50.744;7.086;2022-10-01T14:05:38;22.90;99.90
15765;DHT22;7983;50.744;7.086;2022-10-01T14:13:53;22.80;99.90
15765;DHT22;7983;50.744;7.086;2022-10-01T14:16:46;23.00;99.90
15765;DHT22;7983;50.744;7.086;2022-10-01T14:19:22;23.00;99.90
15765;DHT22;7983;50.744;7.086;2022-10-01T14:22:38;23.20;99.90
15765;DHT22;7983;50.744;7.086;2022-10-01T14:30:26;23.20;99.90
15765;DHT22;7983;50.744;7.086;2022-10-01T14:35:39;22.80;99.90
15765;DHT22;7983;50.744;7.086;2022-10-01T14:38:18;22.60;99.90
15765;DHT22;7983;50.744;7.086;2022-10-01T14:40:48;22.40;99.90
15765;DHT22;7983;50.744;7.086;2022-10-01T14:43:20;22.20;99.90
15765;DHT22;7983;50.744;7.086;2022-10-01T14:45:59;22.10;99.90
15765;DHT22;7983;50.744;7.086;2022-10-01T14:48:30;22.10;99.90
15765;DHT22;7983;50.744;7.086;2022-10-01T14:50:59;22.20;99.90
15765;DHT22;7983;50.744;7.086;2022-10-01T14:53:28;22.20;99.90
15765;DHT22;7983;50.744;7.086;2022-10-01T14:56:10;22.20;99.90
15765;DHT22;7983;50.744;7.086;2022-10-01T14:58:40;22.10;99.90
15765;DHT22;7983;50.744;7.086;2022-10-01T15:01:19;22.10;99.90
15765;DHT22;7983;50.744;7.086;2022-10-01T15:03:46;22.10;99.90
15765;DHT22;7983;50.744;7.086;2022-10-01T15:06:15;22.10;99.90
15765;DHT22;7983;50.744;7.086;2022-10-01T15:08:48;22.20;99.90
15765;DHT22;7983;50.744;7.086;2022-10-01T15:11:24;22.20;99.90
15765;DHT22;7983;50.744;7.086;2022-10-01T15:13:54;22.20;99.90
15765;DHT22;7983;50.744;7.086;2022-10-01T15:16:25;22.30;99.90
15765;DHT22;7983;50.744;7.086;2022-10-01T15:21:40;22.30;99.90
15765;DHT22;7983;50.744;7.086;2022-10-01T15:26:47;22.30;99.90
15765;DHT22;7983;50.744;7.086;2022-10-01T15:29:17;22.10;99.90
15765;DHT22;7983;50.744;7.086;2022-10-01T15:31:45;22.00;99.90
15765;DHT22;7983;50.744;7.086;2022-10-01T15:34:15;21.90;99.90
15765;DHT22;7983;50.744;7.086;2022-10-01T15:36:46;21.90;99.90
15765;DHT22;7983;50.744;7.086;2022-10-01T15:39:37;21.90;99.90
15765;DHT22;7983;50.744;7.086;2022-10-01T15:42:17;21.80;99.90
15765;DHT22;7983;50.744;7.086;2022-10-01T15:44:48;21.70;99.90
15765;DHT22;7983;50.744;7.086;2022-10-01T15:47:34;21.70;99.90
15765;DHT22;7983;50.744;7.086;2022-10-01T16:06:03;21.30;99.90
15765;DHT22;7983;50.744;7.086;2022-10-01T16:11:21;21.10;99.90
15765;DHT22;7983;50.744;7.086;2022-10-01T16:14:19;20.90;99.90
15765;DHT22;7983;50.744;7.086;2022-10-01T16:16:45;20.80;99.90
15765;DHT22;7983;50.744;7.086;2022-10-01T16:19:19;20.70;99.90
15765;DHT22;7983;50.744;7.086;2022-10-01T16:22:21;20.50;99.90
15765;DHT22;7983;50.744;7.086;2022-10-01T16:27:27;20.30;99.90
15765;DHT22;7983;50.744;7.086;2022-10-01T16:29:57;20.20;99.90
15765;DHT22;7983;50.744;7.086;2022-10-01T16:32:23;20.10;99.90
15765;DHT22;7983;50.744;7.086;2022-10-01T16:34:49;20.00;99.90
15765;DHT22;7983;50.744;7.086;2022-10-01T16:37:17;19.90;99.90
15765;DHT22;7983;50.744;7.086;2022-10-01T16:39:45;19.80;99.90
15765;DHT22;7983;50.744;7.086;2022-10-01T16:42:18;19.70;99.90
15765;DHT22;7983;50.744;7.086;2022-10-01T16:44:44;19.70;99.90
15765;DHT22;7983;50.744;7.086;2022-10-01T16:47:11;19.60;99.90
15765;DHT22;7983;50.744;7.086;2022-10-01T16:49:36;19.50;99.90
15765;DHT22;7983;50.744;7.086;2022-10-01T16:52:08;19.40;99.90
15765;DHT22;7983;50.744;7.086;2022-10-01T16:54:34;19.40;99.90
15765;DHT22;7983;50.744;7.086;2022-10-01T16:57:02;19.30;99.90
15765;DHT22;7983;50.744;7.086;2022-10-01T16:59:30;19.20;99.90
15765;DHT22;7983;50.744;7.086;2022-10-01T17:01:58;19.20;99.90
15765;DHT22;7983;50.744;7.086;2022-10-01T17:04:26;19.10;99.90
15765;DHT22;7983;50.744;7.086;2022-10-01T17:06:53;19.00;99.90
15765;DHT22;7983;50.744;7.086;2022-10-01T17:09:19;19.00;99.90
15765;DHT22;7983;50.744;7.086;2022-10-01T17:11:45;19.00;99.90
15765;DHT22;7983;50.744;7.086;2022-10-01T17:14:16;18.90;99.90
15765;DHT22;7983;50.744;7.086;2022-10-01T17:16:42;18.90;99.90
15765;DHT22;7983;50.744;7.086;2022-10-01T17:19:11;18.80;99.90
15765;DHT22;7983;50.744;7.086;2022-10-01T17:21:38;18.80;99.90
15765;DHT22;7983;50.744;7.086;2022-10-01T17:24:06;18.70;99.90
15765;DHT22;7983;50.744;7.086;2022-10-01T17:26:36;18.70;99.90
15765;DHT22;7983;50.744;7.086;2022-10-01T17:29:02;18.70;99.90
15765;DHT22;7983;50.744;7.086;2022-10-01T17:31:28;18.60;99.90
15765;DHT22;7983;50.744;7.086;2022-10-01T17:33:56;18.60;99.90
15765;DHT22;7983;50.744;7.086;2022-10-01T17:36:24;18.60;99.90
15765;DHT22;7983;50.744;7.086;2022-10-01T17:38:50;18.50;99.90
15765;DHT22;7983;50.744;7.086;2022-10-01T17:41:15;18.40;99.90
15765;DHT22;7983;50.744;7.086;2022-10-01T17:43:41;18.40;99.90
15765;DHT22;7983;50.744;7.086;2022-10-01T17:46:07;18.40;99.90
15765;DHT22;7983;50.744;7.086;2022-10-01T17:48:32;18.30;99.90
15765;DHT22;7983;50.744;7.086;2022-10-01T17:51:10;18.20;99.90
15765;DHT22;7983;50.744;7.086;2022-10-01T17:53:37;18.20;99.90
15765;DHT22;7983;50.744;7.086;2022-10-01T17:56:09;18.20;99.90
15765;DHT22;7983;50.744;7.086;2022-10-01T17:58:36;18.20;99.90
15765;DHT22;7983;50.744;7.086;2022-10-01T18:01:06;18.10;99.90
15765;DHT22;7983;50.744;7.086;2022-10-01T18:03:37;18.10;99.90
15765;DHT22;7983;50.744;7.086;2022-10-01T18:06:05;18.00;99.90
15765;DHT22;7983;50.744;7.086;2022-10-01T18:08:37;18.00;99.90
15765;DHT22;7983;50.744;7.086;2022-10-01T18:11:05;18.00;99.90
15765;DHT22;7983;50.744;7.086;2022-10-01T18:13:32;18.00;99.90
15765;DHT22;7983;50.744;7.086;2022-10-01T18:16:03;17.90;99.90
15765;DHT22;7983;50.744;7.086;2022-10-01T18:18:34;17.90;99.90
15765;DHT22;7983;50.744;7.086;2022-10-01T18:21:12;17.90;99.90
15765;DHT22;7983;50.744;7.086;2022-10-01T18:23:41;17.90;99.90
15765;DHT22;7983;50.744;7.086;2022-10-01T18:26:08;17.80;99.90
15765;DHT22;7983;50.744;7.086;2022-10-01T18:28:34;17.80;99.90
15765;DHT22;7983;50.744;7.086;2022-10-01T18:33:47;17.70;99.90
15765;DHT22;7983;50.744;7.086;2022-10-01T18:39:27;17.60;99.90
15765;DHT22;7983;50.744;7.086;2022-10-01T18:41:58;17.50;99.90
15765;DHT22;7983;50.744;7.086;2022-10-01T18:44:24;17.50;99.90
15765;DHT22;7983;50.744;7.086;2022-10-01T18:47:06;17.50;99.90
15765;DHT22;7983;50.744;7.086;2022-10-01T19:01:39;17.20;99.90
15765;DHT22;7983;50.744;7.086;2022-10-01T19:09:52;17.00;99.90
15765;DHT22;7983;50.744;7.086;2022-10-01T19:12:31;16.90;99.90
15765;DHT22;7983;50.744;7.086;2022-10-01T19:17:57;16.70;99.90
15765;DHT22;7983;50.744;7.086;2022-10-01T19:28:58;16.40;99.90
15765;DHT22;7983;50.744;7.086;2022-10-01T19:34:08;16.30;99.90
15765;DHT22;7983;50.744;7.086;2022-10-01T19:36:38;16.20;99.90
15765;DHT22;7983;50.744;7.086;2022-10-01T19:39:11;16.10;99.90
15765;DHT22;7983;50.744;7.086;2022-10-01T19:41:43;16.00;99.90
15765;DHT22;7983;50.744;7.086;2022-10-01T19:45:03;16.00;99.90
15765;DHT22;7983;50.744;7.086;2022-10-01T19:47:45;15.90;99.90
15765;DHT22;7983;50.744;7.086;2022-10-01T19:50:29;15.80;99.90
15765;DHT22;7983;50.744;7.086;2022-10-01T19:53:03;15.80;99.90